KCPR/CPR METAR and TAF weather

Enter ICAO airport designator
Station Type Date Time Source
KCPR METAR 2021/05/14 02:53 UTC NOAA

KCPR 140253Z AUTO 04012KT 10SM BKN110 13/01 A3013 RMK AO2 SLP172 T01330006 53029


Station Type Date Time Source
KCPR Decoded METAR 2021/05/14 02:53 UTC NOAA

NATRONA COUNTY INTERNATIONAL AIRPORT , WY, United States (KCPR) 42-54N 106-28W 1621M
May 13, 2021 - 10:53 PM EDT / 2021.05.14 0253 UTC
Wind: from the NE (040 degrees) at 14 MPH (12 KT):0
Visibility: 10 mile(s):0
Sky conditions: mostly cloudy
Temperature: 55.9 F (13.3 C)
Dew Point: 33.1 F (0.6 C)
Relative Humidity: 41%
Pressure (altimeter): 30.13 in. Hg (1020 hPa)
Pressure tendency: 0.09 inches (2.9 hPa) higher than three hours ago
ob: KCPR 140253Z AUTO 04012KT 10SM BKN110 13/01 A3013 RMK AO2 SLP172 T01330006 53029
cycle: 3

Station Type Date Time Source
KCPR TAF 2021/05/13 20:30 UTC NOAA

TAF
AMD KCPR 132028Z 1320/1418 28014G20KT P6SM SCT100
FM140000 02012G18KT P6SM BKN100
FM140200 06007KT P6SM SCT100 BKN150
FM141600 08010KT P6SM BKN100

Example: see airport list